Kingston, West Virginia
Current Conditions -  °F | °C
As of 6:51 AM on Wednesday 28 Jan 2015 (Local Time) from KBKW Reporting Station
Overcast Overcast  
Wind Chill:   Ceiling: 800
Heat Index: 17°   Visibility: 8mi
Dew Point: 12°   Wind: 8mph
Humidity: 81%   Direction: 320°NW
Pressure: 30.18"   Gusts: NA
Location:  37.9561°N, 81.2443°W
Report Text: KBKW 281151Z AUTO 32007KT 8SM OVC008 M08/M11 A3018 RMK AO2 SLP269 60000 T10831111 11083 21094 53022
Loading
Personal Weather Stations






























Interactive Weather Map New forecast layout! Learn more

10-Day Weather Forecast

Advertisements
Track Severe Weather on mobile